createdAt,value
2023-10-29T00:01:29.638Z,99305.28
2023-10-29T00:03:57.026Z,99319.13
2023-10-29T00:06:24.085Z,99313.94
2023-10-29T00:08:50.587Z,99315.63
2023-10-29T00:11:17.190Z,99318.31
2023-10-29T00:13:44.319Z,99318.31
2023-10-29T00:16:12.529Z,99320.03
2023-10-29T00:18:39.429Z,99310.56
2023-10-29T00:21:06.716Z,99309.69
2023-10-29T00:23:33.938Z,99306.22
2023-10-29T00:26:00.652Z,99293.28
2023-10-29T00:28:27.125Z,99298.53
2023-10-29T00:30:56.715Z,99292.56
2023-10-29T00:33:24.400Z,99292.59
2023-10-29T00:35:51.529Z,99304.66
2023-10-29T00:38:18.044Z,99303.84
2023-10-29T00:40:44.668Z,99295.19
2023-10-29T00:43:15.506Z,99287.53
2023-10-29T00:45:43.189Z,99302.13
2023-10-29T00:48:11.640Z,99298.72
2023-10-29T00:50:39.278Z,99297.00
2023-10-29T00:53:06.516Z,99296.94
2023-10-29T00:55:33.312Z,99296.06
2023-10-29T00:57:59.888Z,99283.22
2023-10-29T01:00:26.377Z,99279.75
2023-10-29T01:02:53.033Z,99278.09
2023-10-29T01:05:19.670Z,99276.34
2023-10-29T01:07:46.926Z,99259.19
2023-10-29T01:10:13.554Z,99273.84
2023-10-29T01:12:40.192Z,99264.31
2023-10-29T01:15:07.178Z,99274.69
2023-10-29T01:17:33.809Z,99287.59
2023-10-29T01:20:00.389Z,99288.38
2023-10-29T01:22:27.088Z,99290.97
2023-10-29T01:24:55.198Z,99289.16
2023-10-29T01:27:22.794Z,99290.88
2023-10-29T01:29:49.490Z,99289.25
2023-10-29T01:32:16.007Z,99296.19
2023-10-29T01:34:42.698Z,99297.00
2023-10-29T01:37:09.228Z,99304.81
2023-10-29T01:39:35.705Z,99301.34
2023-10-29T01:42:02.320Z,99307.34
2023-10-29T01:44:28.855Z,99301.31
2023-10-29T01:46:55.405Z,99290.13
2023-10-29T01:49:21.895Z,99302.13
2023-10-29T01:51:48.404Z,99307.25
2023-10-29T01:54:14.885Z,99296.88
2023-10-29T01:56:41.535Z,99302.03
2023-10-29T01:59:08.112Z,99312.28
2023-10-29T02:01:34.647Z,99311.47
2023-10-29T02:04:01.310Z,99319.16
2023-10-29T02:06:27.870Z,99312.25
2023-10-29T02:08:55.036Z,99313.06
2023-10-29T02:11:21.539Z,99316.53
2023-10-29T02:13:48.038Z,99326.88
2023-10-29T02:16:14.514Z,99326.84
2023-10-29T02:18:40.973Z,99314.81
2023-10-29T02:21:07.982Z,99323.38
2023-10-29T02:23:35.524Z,99320.78
2023-10-29T02:26:02.110Z,99316.50
2023-10-29T02:28:28.847Z,99327.66
2023-10-29T02:30:55.415Z,99326.81
2023-10-29T02:33:21.973Z,99332.94
2023-10-29T02:35:48.790Z,99325.28
2023-10-29T02:38:15.941Z,99328.72
2023-10-29T02:40:42.507Z,99332.94
2023-10-29T02:43:08.968Z,99331.19
2023-10-29T02:45:35.460Z,99322.63
2023-10-29T02:48:02.026Z,99327.84
2023-10-29T02:50:28.642Z,99325.28
2023-10-29T02:52:55.144Z,99327.88
2023-10-29T02:55:21.794Z,99315.81
2023-10-29T02:57:48.273Z,99312.38
2023-10-29T03:00:15.279Z,99315.72
2023-10-29T03:02:41.904Z,99315.78
2023-10-29T03:05:11.805Z,99320.84
2023-10-29T03:07:38.545Z,99326.88
2023-10-29T03:10:08.187Z,99332.91
2023-10-29T03:12:34.639Z,99331.13
2023-10-29T03:15:01.865Z,99326.81
2023-10-29T03:17:28.543Z,99325.00
2023-10-29T03:19:55.097Z,99332.81
2023-10-29T03:22:21.714Z,99322.53
2023-10-29T03:24:48.541Z,99332.75
2023-10-29T03:27:15.394Z,99327.44
2023-10-29T03:29:42.073Z,99338.56
2023-10-29T03:32:08.661Z,99340.19
2023-10-29T03:34:35.169Z,99337.53
2023-10-29T03:37:01.741Z,99340.88
2023-10-29T03:39:30.779Z,99339.25
2023-10-29T03:41:57.516Z,99339.31
2023-10-29T03:44:24.249Z,99333.28
2023-10-29T03:46:52.635Z,99334.94
2023-10-29T03:49:20.073Z,99333.28
2023-10-29T03:51:48.247Z,99331.56
2023-10-29T03:54:14.853Z,99328.97
2023-10-29T03:56:41.626Z,99332.41
2023-10-29T03:59:08.206Z,99327.19
2023-10-29T04:01:34.836Z,99325.41
2023-10-29T04:04:03.627Z,99318.34
2023-10-29T04:06:31.573Z,99321.00
2023-10-29T04:08:58.045Z,99317.66
2023-10-29T04:11:24.569Z,99321.91
2023-10-29T04:13:51.063Z,99317.59
2023-10-29T04:16:18.655Z,99325.34
2023-10-29T04:18:45.242Z,99320.94
2023-10-29T04:21:11.806Z,99324.50
2023-10-29T04:23:38.360Z,99322.78
2023-10-29T04:26:04.943Z,99317.59
2023-10-29T04:28:31.462Z,99328.81
2023-10-29T04:30:58.125Z,99325.31
2023-10-29T04:33:25.201Z,99326.13
2023-10-29T04:35:52.056Z,99331.13
2023-10-29T04:38:18.533Z,99329.50
2023-10-29T04:40:45.440Z,99335.47
2023-10-29T04:43:11.981Z,99325.94
2023-10-29T04:45:38.534Z,99325.06
2023-10-29T04:48:05.378Z,99329.44
2023-10-29T04:50:32.303Z,99324.34
2023-10-29T04:52:59.438Z,99331.19
2023-10-29T04:55:26.041Z,99342.44
2023-10-29T04:57:52.518Z,99331.34
2023-10-29T05:00:19.211Z,99328.75
2023-10-29T05:02:45.831Z,99327.13
2023-10-29T05:05:12.672Z,99319.44
2023-10-29T05:07:39.243Z,99334.09
2023-10-29T05:10:06.585Z,99332.47
2023-10-29T05:12:33.121Z,99334.25
2023-10-29T05:14:59.805Z,99323.09
2023-10-29T05:17:26.308Z,99328.22
2023-10-29T05:19:52.952Z,99330.69
2023-10-29T05:22:19.452Z,99331.59
2023-10-29T05:24:46.074Z,99338.56
2023-10-29T05:27:12.631Z,99336.88
2023-10-29T05:29:39.171Z,99337.69
2023-10-29T05:32:06.488Z,99342.00
2023-10-29T05:34:32.986Z,99339.22
2023-10-29T05:36:59.520Z,99353.16
2023-10-29T05:39:26.040Z,99353.25
2023-10-29T05:41:52.551Z,99350.75
2023-10-29T05:44:19.282Z,99361.00
2023-10-29T05:46:45.846Z,99355.94
2023-10-29T05:49:12.352Z,99359.38
2023-10-29T05:51:39.687Z,99359.38
2023-10-29T05:54:06.401Z,99365.41
2023-10-29T05:56:32.951Z,99362.88
2023-10-29T05:58:59.491Z,99370.50
2023-10-29T06:01:26.257Z,99363.56
2023-10-29T06:03:52.977Z,99370.50
2023-10-29T06:06:20.715Z,99370.41
2023-10-29T06:08:47.229Z,99364.31
2023-10-29T06:11:13.785Z,99366.75
2023-10-29T06:13:40.277Z,99377.84
2023-10-29T06:16:10.302Z,99380.31
2023-10-29T06:18:36.992Z,99391.47
2023-10-29T06:21:04.434Z,99383.72
2023-10-29T06:23:31.307Z,99393.22
2023-10-29T06:25:57.988Z,99388.78
2023-10-29T06:28:24.469Z,99388.81
2023-10-29T06:30:51.053Z,99394.03
2023-10-29T06:33:17.564Z,99392.19
2023-10-29T06:35:44.186Z,99396.41
2023-10-29T06:38:10.716Z,99384.25
2023-10-29T06:40:37.175Z,99392.88
2023-10-29T06:43:04.794Z,99395.47
2023-10-29T06:45:31.363Z,99404.03
2023-10-29T06:47:57.860Z,99403.09
2023-10-29T06:50:24.503Z,99421.97
2023-10-29T06:52:51.144Z,99415.84
2023-10-29T06:55:17.658Z,99419.22
2023-10-29T06:57:44.161Z,99414.03
2023-10-29T07:00:11.833Z,99420.81
2023-10-29T07:02:38.686Z,99417.34
2023-10-29T07:05:05.620Z,99412.13
2023-10-29T07:07:32.189Z,99416.19
2023-10-29T07:09:58.681Z,99418.69
2023-10-29T07:12:25.329Z,99411.78
2023-10-29T07:14:52.193Z,99415.03
2023-10-29T07:17:18.821Z,99415.84
2023-10-29T07:19:45.460Z,99423.63
2023-10-29T07:22:11.926Z,99423.50
2023-10-29T07:24:39.103Z,99411.25
2023-10-29T07:27:05.706Z,99414.69
2023-10-29T07:29:32.428Z,99417.22
2023-10-29T07:31:59.030Z,99410.16
2023-10-29T07:34:25.552Z,99408.38
2023-10-29T07:36:52.149Z,99404.09
2023-10-29T07:39:18.784Z,99400.56
2023-10-29T07:41:45.328Z,99407.34
2023-10-29T07:44:12.406Z,99405.50
2023-10-29T07:46:38.974Z,99398.44
2023-10-29T07:49:05.534Z,99405.25
2023-10-29T07:51:32.166Z,99403.44
2023-10-29T07:54:00.825Z,99404.00
2023-10-29T07:56:28.096Z,99398.97
2023-10-29T07:58:54.813Z,99407.44
2023-10-29T08:01:21.443Z,99397.03
2023-10-29T08:03:49.751Z,99401.97
2023-10-29T08:06:16.540Z,99401.75
2023-10-29T08:08:43.147Z,99393.81
2023-10-29T08:11:22.452Z,99401.44
2023-10-29T08:13:49.547Z,99393.47
2023-10-29T08:16:16.243Z,99408.84
2023-10-29T08:18:42.922Z,99407.09
2023-10-29T08:21:09.645Z,99415.44
2023-10-29T08:23:36.615Z,99413.44
2023-10-29T08:26:03.430Z,99417.75
2023-10-29T08:28:31.093Z,99404.44
2023-10-29T08:30:57.614Z,99415.31
2023-10-29T08:33:24.225Z,99412.94
2023-10-29T08:35:50.806Z,99401.72
2023-10-29T08:38:17.294Z,99413.97
2023-10-29T08:40:43.784Z,99409.28
2023-10-29T08:43:10.363Z,99406.38
2023-10-29T08:45:42.350Z,99407.66
2023-10-29T08:48:09.706Z,99408.25
2023-10-29T08:50:36.379Z,99403.75
2023-10-29T08:53:02.998Z,99419.38
2023-10-29T08:55:29.809Z,99406.59
2023-10-29T08:57:56.328Z,99413.09
2023-10-29T09:00:23.000Z,99409.16
2023-10-29T09:02:49.670Z,99417.31
2023-10-29T09:05:16.409Z,99417.94
2023-10-29T09:07:43.014Z,99414.63
2023-10-29T09:10:10.000Z,99425.34
2023-10-29T09:12:36.614Z,99415.53
2023-10-29T09:15:03.373Z,99417.66
2023-10-29T09:17:30.089Z,99410.13
2023-10-29T09:19:56.742Z,99407.34
2023-10-29T09:22:23.257Z,99406.97
2023-10-29T09:24:50.152Z,99400.16
2023-10-29T09:27:16.706Z,99398.41
2023-10-29T09:29:43.299Z,99392.66
2023-10-29T09:32:09.910Z,99392.09
2023-10-29T09:34:36.553Z,99406.66
2023-10-29T09:37:03.081Z,99395.34
2023-10-29T09:39:29.658Z,99399.72
2023-10-29T09:42:02.505Z,99395.72
2023-10-29T09:44:32.156Z,99393.22
2023-10-29T09:47:14.115Z,99396.53
2023-10-29T09:49:41.116Z,99395.59
2023-10-29T09:52:09.198Z,99380.38
2023-10-29T09:54:39.970Z,99390.91
2023-10-29T09:57:07.559Z,99394.25
2023-10-29T09:59:36.116Z,99388.34
2023-10-29T10:02:03.741Z,99389.69
2023-10-29T10:04:30.601Z,99385.19
2023-10-29T10:06:59.883Z,99383.13
2023-10-29T10:09:26.845Z,99385.88
2023-10-29T10:12:05.462Z,99381.97
2023-10-29T10:14:32.510Z,99373.81
2023-10-29T10:17:11.928Z,99375.78
2023-10-29T10:19:38.561Z,99373.81
2023-10-29T10:22:05.468Z,99361.22
2023-10-29T10:24:50.129Z,99369.00
2023-10-29T10:27:16.777Z,99352.19
2023-10-29T10:29:43.305Z,99364.25
2023-10-29T10:32:10.128Z,99366.84
2023-10-29T10:34:38.912Z,99351.13
2023-10-29T10:37:05.682Z,99360.72
2023-10-29T10:39:33.285Z,99349.06
2023-10-29T10:42:01.815Z,99343.84
2023-10-29T10:44:32.259Z,99347.41
2023-10-29T10:47:03.619Z,99351.47
2023-10-29T10:49:33.150Z,99347.44
2023-10-29T10:52:02.632Z,99343.09
2023-10-29T10:54:32.427Z,99344.38
2023-10-29T10:57:00.618Z,99338.97
2023-10-29T10:59:27.239Z,99334.63
2023-10-29T11:01:54.975Z,99345.13
2023-10-29T11:04:24.473Z,99332.00
2023-10-29T11:06:52.873Z,99332.34
2023-10-29T11:09:20.891Z,99327.41
2023-10-29T11:11:54.493Z,99323.06
2023-10-29T11:14:22.386Z,99333.34
2023-10-29T11:17:07.929Z,99328.75
2023-10-29T11:19:34.575Z,99332.72
2023-10-29T11:22:16.061Z,99324.47
2023-10-29T11:24:42.924Z,99343.91
2023-10-29T11:27:37.707Z,99334.28
2023-10-29T11:30:12.298Z,99335.06
2023-10-29T11:32:40.117Z,99331.69
2023-10-29T11:35:15.720Z,99328.66
2023-10-29T11:37:45.800Z,99325.13
2023-10-29T11:40:24.454Z,99327.63
2023-10-29T11:42:54.330Z,99315.69
2023-10-29T11:45:26.979Z,99323.78
2023-10-29T11:48:11.250Z,99313.19
2023-10-29T11:50:39.252Z,99316.06
2023-10-29T11:53:06.213Z,99303.78
2023-10-29T11:55:42.735Z,99302.88
2023-10-29T11:58:09.351Z,99310.41
2023-10-29T12:00:42.134Z,99295.66
2023-10-29T12:03:15.177Z,99300.75
2023-10-29T12:05:51.057Z,99302.78
2023-10-29T12:08:17.967Z,99303.34
2023-10-29T12:10:51.514Z,99305.00
2023-10-29T12:13:19.932Z,99300.91
2023-10-29T12:15:48.280Z,99293.38
2023-10-29T12:18:24.820Z,99301.50
2023-10-29T12:20:52.019Z,99289.47
2023-10-29T12:23:18.931Z,99288.03
2023-10-29T12:25:45.851Z,99289.56
2023-10-29T12:28:14.671Z,99298.75
2023-10-29T12:30:43.373Z,99295.75
2023-10-29T12:33:17.970Z,99289.72
2023-10-29T12:35:46.850Z,99285.63
2023-10-29T12:38:13.654Z,99287.69
2023-10-29T12:41:00.789Z,99284.19
2023-10-29T12:43:44.731Z,99281.06
2023-10-29T12:46:20.632Z,99274.09
2023-10-29T12:49:11.143Z,99277.66
2023-10-29T12:51:44.530Z,99275.88
2023-10-29T12:54:21.064Z,99264.94
2023-10-29T12:56:53.655Z,99272.41
2023-10-29T12:59:21.833Z,99266.88
2023-10-29T13:01:53.559Z,99268.94
2023-10-29T13:04:21.737Z,99278.50
2023-10-29T13:06:48.270Z,99274.47
2023-10-29T13:09:19.221Z,99267.75
2023-10-29T13:11:49.614Z,99270.72
2023-10-29T13:14:16.246Z,99268.50
2023-10-29T13:16:42.932Z,99276.66
2023-10-29T13:19:09.808Z,99276.41
2023-10-29T13:21:36.341Z,99275.91
2023-10-29T13:24:02.950Z,99275.81
2023-10-29T13:26:29.506Z,99275.16
2023-10-29T13:28:56.841Z,99268.31
2023-10-29T13:31:23.983Z,99273.19
2023-10-29T13:33:50.858Z,99279.38
2023-10-29T13:36:17.611Z,99272.06
2023-10-29T13:38:44.147Z,99269.13
2023-10-29T13:41:13.190Z,99259.34
2023-10-29T13:43:39.893Z,99264.25
2023-10-29T13:46:06.517Z,99267.84
2023-10-29T13:48:33.168Z,99272.25
2023-10-29T13:51:06.004Z,99250.34
2023-10-29T13:53:33.893Z,99254.44
2023-10-29T13:56:10.555Z,99251.81
2023-10-29T13:58:37.745Z,99267.22
2023-10-29T14:01:04.512Z,99261.63
2023-10-29T14:03:32.579Z,99259.09
2023-10-29T14:05:59.251Z,99261.47
2023-10-29T14:08:25.841Z,99274.75
2023-10-29T14:10:52.344Z,99268.75
2023-10-29T14:13:18.926Z,99260.50
2023-10-29T14:15:45.453Z,99264.78
2023-10-29T14:18:12.001Z,99262.88
2023-10-29T14:20:39.379Z,99262.03
2023-10-29T14:23:05.952Z,99258.66
2023-10-29T14:25:32.543Z,99267.22
2023-10-29T14:28:02.120Z,99272.91
2023-10-29T14:30:29.188Z,99267.47
2023-10-29T14:32:55.954Z,99266.25
2023-10-29T14:35:22.781Z,99266.72
2023-10-29T14:37:53.098Z,99264.25
2023-10-29T14:40:20.784Z,99272.19
2023-10-29T14:42:50.452Z,99275.88
2023-10-29T14:45:18.135Z,99267.28
2023-10-29T14:47:45.153Z,99266.06
2023-10-29T14:50:13.468Z,99270.22
2023-10-29T14:52:41.355Z,99273.03
2023-10-29T14:55:09.960Z,99275.25
2023-10-29T14:57:38.509Z,99261.91
2023-10-29T15:00:07.165Z,99266.59
2023-10-29T15:02:34.144Z,99266.22
2023-10-29T15:05:00.698Z,99268.53
2023-10-29T15:07:28.114Z,99275.03
2023-10-29T15:09:54.652Z,99270.88
2023-10-29T15:12:21.173Z,99264.53
2023-10-29T15:14:50.866Z,99259.88
2023-10-29T15:17:19.179Z,99259.06
2023-10-29T15:19:50.934Z,99263.44
2023-10-29T15:22:17.563Z,99253.31
2023-10-29T15:24:44.059Z,99259.97
2023-10-29T15:27:10.550Z,99266.44
2023-10-29T15:29:37.152Z,99266.28
2023-10-29T15:32:04.071Z,99255.88
2023-10-29T15:34:33.719Z,99259.06
2023-10-29T15:37:00.209Z,99264.69
2023-10-29T15:39:28.602Z,99271.72
2023-10-29T15:41:55.118Z,99269.59
2023-10-29T15:44:21.597Z,99273.00
2023-10-29T15:46:48.943Z,99272.88
2023-10-29T15:49:15.464Z,99279.94
2023-10-29T15:51:42.038Z,99277.09
2023-10-29T15:54:08.529Z,99282.22
2023-10-29T15:56:37.742Z,99291.97
2023-10-29T15:59:08.692Z,99297.75
2023-10-29T16:01:37.000Z,99297.75
2023-10-29T16:04:03.962Z,99299.81
2023-10-29T16:06:30.501Z,99307.38
2023-10-29T16:08:57.080Z,99311.50
2023-10-29T16:11:25.308Z,99302.50
2023-10-29T16:13:51.885Z,99304.91
2023-10-29T16:16:18.621Z,99304.06
2023-10-29T16:18:45.238Z,99296.47
2023-10-29T16:21:12.000Z,99300.25
2023-10-29T16:23:38.701Z,99286.91
2023-10-29T16:26:05.413Z,99309.94
2023-10-29T16:28:31.973Z,99299.34
2023-10-29T16:30:58.442Z,99298.75
2023-10-29T16:33:25.102Z,99302.75
2023-10-29T16:35:54.294Z,99308.13
2023-10-29T16:38:20.776Z,99308.47
2023-10-29T16:40:49.080Z,99309.69
2023-10-29T16:43:15.529Z,99310.13
2023-10-29T16:45:43.828Z,99310.22
2023-10-29T16:48:10.419Z,99325.53
2023-10-29T16:50:52.406Z,99317.97
2023-10-29T16:53:26.702Z,99319.84
2023-10-29T16:55:53.190Z,99326.16
2023-10-29T16:58:19.752Z,99324.34
2023-10-29T17:00:49.358Z,99333.97
2023-10-29T17:03:16.011Z,99339.72
2023-10-29T17:05:42.698Z,99337.03
2023-10-29T17:08:09.536Z,99330.75
2023-10-29T17:10:39.355Z,99329.16
2023-10-29T17:13:06.101Z,99320.16
2023-10-29T17:15:32.594Z,99325.06
2023-10-29T17:17:59.096Z,99326.63
2023-10-29T17:20:25.856Z,99323.69
2023-10-29T17:22:53.278Z,99321.19
2023-10-29T17:25:19.838Z,99333.31
2023-10-29T17:27:46.685Z,99335.25
2023-10-29T17:30:14.054Z,99338.72
2023-10-29T17:32:40.634Z,99334.16
2023-10-29T17:35:08.090Z,99338.81
2023-10-29T17:37:34.669Z,99338.16
2023-10-29T17:40:01.142Z,99344.31
2023-10-29T17:42:30.444Z,99342.25
2023-10-29T17:44:57.081Z,99346.88
2023-10-29T17:47:23.731Z,99344.81
2023-10-29T17:49:50.230Z,99338.59
2023-10-29T17:52:16.747Z,99353.56
2023-10-29T17:54:43.919Z,99351.19
2023-10-29T17:57:10.515Z,99346.06
2023-10-29T17:59:39.425Z,99346.66
2023-10-29T18:02:06.494Z,99341.06
2023-10-29T18:04:33.074Z,99341.25
2023-10-29T18:07:00.266Z,99340.94
2023-10-29T18:09:27.398Z,99339.72
2023-10-29T18:11:56.897Z,99339.94
2023-10-29T18:14:24.416Z,99343.13
2023-10-29T18:16:51.730Z,99346.28
2023-10-29T18:19:18.366Z,99337.41
2023-10-29T18:21:45.396Z,99339.97
2023-10-29T18:24:12.994Z,99350.63
2023-10-29T18:26:40.280Z,99337.66
2023-10-29T18:29:06.869Z,99342.03
2023-10-29T18:31:33.328Z,99344.34
2023-10-29T18:33:59.877Z,99347.28
2023-10-29T18:36:27.897Z,99346.94
2023-10-29T18:39:00.182Z,99330.25
2023-10-29T18:41:26.876Z,99340.16
2023-10-29T18:43:55.824Z,99339.84
2023-10-29T18:46:22.422Z,99339.53
2023-10-29T18:48:49.088Z,99339.81
2023-10-29T18:51:17.713Z,99349.59
2023-10-29T18:53:45.746Z,99334.81
2023-10-29T18:56:12.301Z,99339.34
2023-10-29T18:58:41.738Z,99335.66
2023-10-29T19:01:10.679Z,99340.34
2023-10-29T19:03:37.537Z,99340.13
2023-10-29T19:06:09.263Z,99344.13
2023-10-29T19:08:39.058Z,99340.03
2023-10-29T19:11:06.263Z,99344.69
2023-10-29T19:13:36.113Z,99344.59
2023-10-29T19:16:04.955Z,99348.88
2023-10-29T19:18:32.248Z,99341.94
2023-10-29T19:20:59.346Z,99336.28
2023-10-29T19:23:26.293Z,99335.28
2023-10-29T19:25:53.174Z,99335.97
2023-10-29T19:28:19.714Z,99346.31
2023-10-29T19:31:04.830Z,99341.25
2023-10-29T19:33:34.065Z,99346.13
2023-10-29T19:36:00.671Z,99341.16
2023-10-29T19:38:27.315Z,99335.84
2023-10-29T19:40:59.054Z,99337.56
2023-10-29T19:43:25.687Z,99334.25
2023-10-29T19:45:57.048Z,99337.88
2023-10-29T19:48:24.918Z,99331.75
2023-10-29T19:50:59.235Z,99327.56
2023-10-29T19:53:30.176Z,99336.88
2023-10-29T19:55:57.486Z,99344.66
2023-10-29T19:58:24.680Z,99344.00
2023-10-29T20:00:51.853Z,99329.34
2023-10-29T20:03:19.076Z,99338.34
2023-10-29T20:05:46.022Z,99332.28
2023-10-29T20:08:12.760Z,99314.47
2023-10-29T20:10:40.875Z,99322.84
2023-10-29T20:13:07.690Z,99328.06
2023-10-29T20:15:35.345Z,99321.88
2023-10-29T20:18:03.027Z,99326.88
2023-10-29T20:20:30.714Z,99323.63
2023-10-29T20:22:58.105Z,99325.47
2023-10-29T20:25:28.891Z,99317.28
2023-10-29T20:27:56.108Z,99318.69
2023-10-29T20:30:24.325Z,99327.75
2023-10-29T20:32:51.465Z,99328.38
2023-10-29T20:35:18.593Z,99333.59
2023-10-29T20:37:45.154Z,99328.38
2023-10-29T20:40:12.735Z,99324.97
2023-10-29T20:42:39.243Z,99322.38
2023-10-29T20:45:06.417Z,99315.97
2023-10-29T20:47:32.945Z,99324.59
2023-10-29T20:49:59.443Z,99322.00
2023-10-29T20:52:26.014Z,99323.53
2023-10-29T20:54:52.622Z,99319.56
2023-10-29T20:57:19.228Z,99322.69
2023-10-29T20:59:45.865Z,99329.53
2023-10-29T21:02:12.475Z,99319.16
2023-10-29T21:04:39.035Z,99318.16
2023-10-29T21:07:05.608Z,99320.38
2023-10-29T21:09:32.238Z,99326.78
2023-10-29T21:11:58.894Z,99326.78
2023-10-29T21:14:25.427Z,99333.81
2023-10-29T21:16:51.875Z,99328.94
2023-10-29T21:19:19.979Z,99326.50
2023-10-29T21:21:48.506Z,99325.31
2023-10-29T21:24:15.288Z,99330.66
2023-10-29T21:26:41.860Z,99337.75
2023-10-29T21:29:08.388Z,99340.19
2023-10-29T21:31:34.916Z,99339.59
2023-10-29T21:34:01.385Z,99343.75
2023-10-29T21:36:27.968Z,99336.44
2023-10-29T21:38:54.487Z,99340.75
2023-10-29T21:41:23.340Z,99346.78
2023-10-29T21:43:49.932Z,99337.69
2023-10-29T21:46:16.541Z,99343.84
2023-10-29T21:48:43.090Z,99347.09
2023-10-29T21:51:09.669Z,99342.91
2023-10-29T21:53:36.389Z,99343.88
2023-10-29T21:56:06.119Z,99355.28
2023-10-29T21:58:33.118Z,99347.72
2023-10-29T22:00:59.689Z,99347.13
2023-10-29T22:03:26.994Z,99344.72
2023-10-29T22:06:00.685Z,99342.66
2023-10-29T22:08:28.904Z,99339.25
2023-10-29T22:10:59.462Z,99348.72
2023-10-29T22:13:27.022Z,99345.53
2023-10-29T22:15:54.061Z,99344.66
2023-10-29T22:18:21.747Z,99343.94
2023-10-29T22:20:48.654Z,99343.41
2023-10-29T22:23:15.251Z,99339.25
2023-10-29T22:25:41.782Z,99333.44
2023-10-29T22:28:08.516Z,99335.75
2023-10-29T22:30:36.552Z,99328.69
2023-10-29T22:33:03.169Z,99337.34
2023-10-29T22:35:29.745Z,99331.94
2023-10-29T22:37:56.343Z,99329.38
2023-10-29T22:40:22.835Z,99325.53
2023-10-29T22:42:49.887Z,99320.72
2023-10-29T22:45:17.157Z,99324.84
2023-10-29T22:47:44.729Z,99320.34
2023-10-29T22:50:11.365Z,99332.47
2023-10-29T22:52:37.881Z,99326.88
2023-10-29T22:55:04.833Z,99334.38
2023-10-29T22:57:31.580Z,99336.31
2023-10-29T22:59:58.200Z,99331.47
2023-10-29T23:02:26.597Z,99328.91
2023-10-29T23:04:55.190Z,99337.22
2023-10-29T23:07:21.860Z,99340.78
2023-10-29T23:09:48.511Z,99341.41
2023-10-29T23:12:15.223Z,99339.94
2023-10-29T23:14:41.804Z,99339.13
2023-10-29T23:17:08.303Z,99343.53
2023-10-29T23:19:35.209Z,99344.31
2023-10-29T23:22:02.007Z,99337.75
2023-10-29T23:24:28.535Z,99338.63
2023-10-29T23:26:55.018Z,99340.75
2023-10-29T23:29:21.482Z,99329.53
2023-10-29T23:31:48.082Z,99331.91
2023-10-29T23:34:14.739Z,99329.44
2023-10-29T23:36:41.299Z,99326.53
2023-10-29T23:39:07.838Z,99330.31
2023-10-29T23:41:34.360Z,99344.94
2023-10-29T23:44:00.812Z,99331.97
2023-10-29T23:46:27.341Z,99341.16
2023-10-29T23:48:53.894Z,99344.84
2023-10-29T23:51:20.382Z,99337.34
2023-10-29T23:53:46.936Z,99334.84
2023-10-29T23:56:13.640Z,99337.81
2023-10-29T23:58:40.088Z,99338.28
